sensor_id;sensor_type;location;lat;lon;timestamp;temperature;humidity
78475;SHT31;67766;51.964;5.660;2024-03-23T00:54:09;13.1;61.8
78475;SHT31;67766;51.964;5.660;2024-03-23T00:56:38;13.1;61.7
78475;SHT31;67766;51.964;5.660;2024-03-23T00:59:08;13.1;61.7
78475;SHT31;67766;51.964;5.660;2024-03-23T01:01:37;13.1;61.7
78475;SHT31;67766;51.964;5.660;2024-03-23T01:04:09;13.1;61.8
78475;SHT31;67766;51.964;5.660;2024-03-23T01:06:41;13.1;62.1
78475;SHT31;67766;51.964;5.660;2024-03-23T01:09:10;13.1;62.1
78475;SHT31;67766;51.964;5.660;2024-03-23T01:11:41;13.1;62.2
78475;SHT31;67766;51.964;5.660;2024-03-23T01:14:11;13.1;62.1
78475;SHT31;67766;51.964;5.660;2024-03-23T01:16:40;13.0;62.1
78475;SHT31;67766;51.964;5.660;2024-03-23T01:19:09;13.0;62.2
78475;SHT31;67766;51.964;5.660;2024-03-23T01:21:39;13.0;62.4
78475;SHT31;67766;51.964;5.660;2024-03-23T01:24:08;13.0;62.5
78475;SHT31;67766;51.964;5.660;2024-03-23T01:26:38;13.0;62.3
78475;SHT31;67766;51.964;5.660;2024-03-23T01:29:07;13.0;62.4
78475;SHT31;67766;51.964;5.660;2024-03-23T01:31:37;13.0;62.6
78475;SHT31;67766;51.964;5.660;2024-03-23T01:34:06;12.9;62.8
78475;SHT31;67766;51.964;5.660;2024-03-23T01:36:38;12.9;62.9
78475;SHT31;67766;51.964;5.660;2024-03-23T01:39:07;12.9;62.8
78475;SHT31;67766;51.964;5.660;2024-03-23T01:41:39;12.9;63.0
78475;SHT31;67766;51.964;5.660;2024-03-23T01:44:09;12.9;63.1
78475;SHT31;67766;51.964;5.660;2024-03-23T01:46:40;12.9;63.0
78475;SHT31;67766;51.964;5.660;2024-03-23T01:49:10;12.9;63.1
78475;SHT31;67766;51.964;5.660;2024-03-23T01:51:44;12.9;63.0
78475;SHT31;67766;51.964;5.660;2024-03-23T01:54:14;12.9;63.0
78475;SHT31;67766;51.964;5.660;2024-03-23T01:56:47;12.9;63.1
78475;SHT31;67766;51.964;5.660;2024-03-23T01:59:16;12.9;63.0
78475;SHT31;67766;51.964;5.660;2024-03-23T02:01:46;12.9;63.0
78475;SHT31;67766;51.964;5.660;2024-03-23T02:04:15;12.9;63.0
78475;SHT31;67766;51.964;5.660;2024-03-23T02:06:45;12.9;63.1
78475;SHT31;67766;51.964;5.660;2024-03-23T02:09:16;12.9;63.2
78475;SHT31;67766;51.964;5.660;2024-03-23T02:11:45;12.9;63.2
78475;SHT31;67766;51.964;5.660;2024-03-23T02:14:14;12.9;63.3
78475;SHT31;67766;51.964;5.660;2024-03-23T02:16:44;12.9;63.3
78475;SHT31;67766;51.964;5.660;2024-03-23T02:19:14;12.9;63.3
78475;SHT31;67766;51.964;5.660;2024-03-23T02:21:44;12.9;63.3
78475;SHT31;67766;51.964;5.660;2024-03-23T02:24:14;12.9;63.4
78475;SHT31;67766;51.964;5.660;2024-03-23T02:26:43;12.8;63.4
78475;SHT31;67766;51.964;5.660;2024-03-23T02:29:15;12.8;63.5
78475;SHT31;67766;51.964;5.660;2024-03-23T02:31:45;12.8;63.5
78475;SHT31;67766;51.964;5.660;2024-03-23T02:34:14;12.8;63.4
78475;SHT31;67766;51.964;5.660;2024-03-23T02:36:43;12.8;63.3
78475;SHT31;67766;51.964;5.660;2024-03-23T02:39:13;12.8;63.2
78475;SHT31;67766;51.964;5.660;2024-03-23T02:41:42;12.8;63.1
78475;SHT31;67766;51.964;5.660;2024-03-23T02:44:12;12.8;62.9
78475;SHT31;67766;51.964;5.660;2024-03-23T02:46:41;12.7;62.9
78475;SHT31;67766;51.964;5.660;2024-03-23T02:49:10;12.7;63.0
78475;SHT31;67766;51.964;5.660;2024-03-23T02:51:40;12.7;63.0
78475;SHT31;67766;51.964;5.660;2024-03-23T02:54:12;12.6;63.2
78475;SHT31;67766;51.964;5.660;2024-03-23T02:56:42;12.6;63.4
78475;SHT31;67766;51.964;5.660;2024-03-23T02:59:12;12.6;63.3
78475;SHT31;67766;51.964;5.660;2024-03-23T03:01:42;12.6;63.3
78475;SHT31;67766;51.964;5.660;2024-03-23T03:04:11;12.5;63.1
78475;SHT31;67766;51.964;5.660;2024-03-23T03:06:40;12.5;63.0
78475;SHT31;67766;51.964;5.660;2024-03-23T03:09:10;12.5;62.9
78475;SHT31;67766;51.964;5.660;2024-03-23T03:11:42;12.5;62.9
78475;SHT31;67766;51.964;5.660;2024-03-23T03:14:12;12.4;62.9
78475;SHT31;67766;51.964;5.660;2024-03-23T03:16:41;12.4;62.8
78475;SHT31;67766;51.964;5.660;2024-03-23T03:19:12;12.4;62.8
78475;SHT31;67766;51.964;5.660;2024-03-23T03:21:43;12.4;62.7
78475;SHT31;67766;51.964;5.660;2024-03-23T03:24:14;12.3;62.7
78475;SHT31;67766;51.964;5.660;2024-03-23T03:26:44;12.3;62.8
78475;SHT31;67766;51.964;5.660;2024-03-23T03:29:14;12.3;62.9
78475;SHT31;67766;51.964;5.660;2024-03-23T03:31:45;12.3;63.0
78475;SHT31;67766;51.964;5.660;2024-03-23T03:34:15;12.3;62.8
78475;SHT31;67766;51.964;5.660;2024-03-23T03:36:45;12.2;62.8
78475;SHT31;67766;51.964;5.660;2024-03-23T03:39:14;12.2;62.8
78475;SHT31;67766;51.964;5.660;2024-03-23T03:41:44;12.2;62.4
78475;SHT31;67766;51.964;5.660;2024-03-23T03:44:13;12.2;62.0
78475;SHT31;67766;51.964;5.660;2024-03-23T03:46:43;12.2;62.0
78475;SHT31;67766;51.964;5.660;2024-03-23T03:49:12;12.2;61.8
78475;SHT31;67766;51.964;5.660;2024-03-23T03:51:42;12.2;61.5
78475;SHT31;67766;51.964;5.660;2024-03-23T03:54:12;12.2;61.3
78475;SHT31;67766;51.964;5.660;2024-03-23T03:56:41;12.1;61.1
78475;SHT31;67766;51.964;5.660;2024-03-23T03:59:11;12.1;61.1
78475;SHT31;67766;51.964;5.660;2024-03-23T04:01:40;12.1;60.9
78475;SHT31;67766;51.964;5.660;2024-03-23T04:04:10;12.1;60.7
78475;SHT31;67766;51.964;5.660;2024-03-23T04:06:41;12.0;60.7
78475;SHT31;67766;51.964;5.660;2024-03-23T04:09:11;12.0;60.7
78475;SHT31;67766;51.964;5.660;2024-03-23T04:11:40;12.0;60.5
78475;SHT31;67766;51.964;5.660;2024-03-23T04:14:09;11.9;60.3
78475;SHT31;67766;51.964;5.660;2024-03-23T04:16:39;11.9;60.3
78475;SHT31;67766;51.964;5.660;2024-03-23T04:19:09;11.9;60.2
78475;SHT31;67766;51.964;5.660;2024-03-23T04:21:38;11.8;60.2
78475;SHT31;67766;51.964;5.660;2024-03-23T04:24:10;11.8;60.2
78475;SHT31;67766;51.964;5.660;2024-03-23T04:26:43;11.8;60.1
78475;SHT31;67766;51.964;5.660;2024-03-23T04:29:13;11.7;60.1
78475;SHT31;67766;51.964;5.660;2024-03-23T04:31:42;11.7;60.1
78475;SHT31;67766;51.964;5.660;2024-03-23T04:34:13;11.7;59.9
78475;SHT31;67766;51.964;5.660;2024-03-23T04:36:42;11.7;59.7
78475;SHT31;67766;51.964;5.660;2024-03-23T04:39:12;11.6;59.5
78475;SHT31;67766;51.964;5.660;2024-03-23T04:41:41;11.6;59.6
78475;SHT31;67766;51.964;5.660;2024-03-23T04:44:11;11.6;59.6
78475;SHT31;67766;51.964;5.660;2024-03-23T04:46:40;11.5;59.7
78475;SHT31;67766;51.964;5.660;2024-03-23T04:49:09;11.5;59.6
78475;SHT31;67766;51.964;5.660;2024-03-23T04:51:39;11.5;59.3
78475;SHT31;67766;51.964;5.660;2024-03-23T04:54:13;11.4;59.8
78475;SHT31;67766;51.964;5.660;2024-03-23T04:56:43;11.4;59.7
78475;SHT31;67766;51.964;5.660;2024-03-23T04:59:12;11.4;59.9
78475;SHT31;67766;51.964;5.660;2024-03-23T05:01:41;11.3;60.1
78475;SHT31;67766;51.964;5.660;2024-03-23T05:04:11;11.3;60.3
78475;SHT31;67766;51.964;5.660;2024-03-23T05:06:40;11.3;60.4
78475;SHT31;67766;51.964;5.660;2024-03-23T05:09:10;11.2;60.3
78475;SHT31;67766;51.964;5.660;2024-03-23T05:11:40;11.2;60.3
78475;SHT31;67766;51.964;5.660;2024-03-23T05:14:13;11.2;60.0
78475;SHT31;67766;51.964;5.660;2024-03-23T05:16:43;11.2;60.3
78475;SHT31;67766;51.964;5.660;2024-03-23T05:19:12;11.1;60.2
78475;SHT31;67766;51.964;5.660;2024-03-23T05:21:41;11.1;60.3
78475;SHT31;67766;51.964;5.660;2024-03-23T05:24:12;11.1;60.0
78475;SHT31;67766;51.964;5.660;2024-03-23T05:26:41;11.1;60.0
78475;SHT31;67766;51.964;5.660;2024-03-23T05:29:11;11.1;60.1
78475;SHT31;67766;51.964;5.660;2024-03-23T05:31:41;11.0;60.3
78475;SHT31;67766;51.964;5.660;2024-03-23T05:34:12;11.0;60.2
78475;SHT31;67766;51.964;5.660;2024-03-23T05:36:42;11.0;60.2
78475;SHT31;67766;51.964;5.660;2024-03-23T05:39:11;11.0;60.1
78475;SHT31;67766;51.964;5.660;2024-03-23T05:41:44;11.0;59.5
78475;SHT31;67766;51.964;5.660;2024-03-23T05:44:13;11.0;59.9
78475;SHT31;67766;51.964;5.660;2024-03-23T05:46:43;10.9;59.8
78475;SHT31;67766;51.964;5.660;2024-03-23T05:49:16;10.9;59.9
78475;SHT31;67766;51.964;5.660;2024-03-23T05:51:46;10.9;60.1
78475;SHT31;67766;51.964;5.660;2024-03-23T05:54:16;10.9;60.1
78475;SHT31;67766;51.964;5.660;2024-03-23T05:56:45;10.9;60.3
78475;SHT31;67766;51.964;5.660;2024-03-23T05:59:15;10.9;60.4
78475;SHT31;67766;51.964;5.660;2024-03-23T06:01:46;10.9;60.5
78475;SHT31;67766;51.964;5.660;2024-03-23T06:04:16;10.9;60.4
78475;SHT31;67766;51.964;5.660;2024-03-23T06:06:46;10.9;60.5
78475;SHT31;67766;51.964;5.660;2024-03-23T06:09:17;11.0;60.5
78475;SHT31;67766;51.964;5.660;2024-03-23T06:11:48;11.0;60.2
78475;SHT31;67766;51.964;5.660;2024-03-23T06:14:18;11.0;60.7
78475;SHT31;67766;51.964;5.660;2024-03-23T06:16:49;11.1;60.5
78475;SHT31;67766;51.964;5.660;2024-03-23T06:19:18;11.1;60.4
78475;SHT31;67766;51.964;5.660;2024-03-23T06:21:48;11.2;60.5
78475;SHT31;67766;51.964;5.660;2024-03-23T06:24:20;11.2;59.9
78475;SHT31;67766;51.964;5.660;2024-03-23T06:26:49;11.3;59.6
78475;SHT31;67766;51.964;5.660;2024-03-23T06:29:19;11.3;59.5
78475;SHT31;67766;51.964;5.660;2024-03-23T06:31:54;11.3;59.5
78475;SHT31;67766;51.964;5.660;2024-03-23T06:34:24;11.4;58.8
78475;SHT31;67766;51.964;5.660;2024-03-23T06:36:54;11.4;58.7
78475;SHT31;67766;51.964;5.660;2024-03-23T06:39:26;11.4;58.8
78475;SHT31;67766;51.964;5.660;2024-03-23T06:41:57;11.4;59.2
78475;SHT31;67766;51.964;5.660;2024-03-23T06:44:29;11.4;59.7
78475;SHT31;67766;51.964;5.660;2024-03-23T06:46:58;11.5;59.5
78475;SHT31;67766;51.964;5.660;2024-03-23T06:49:28;11.5;59.9
78475;SHT31;67766;51.964;5.660;2024-03-23T06:51:57;11.6;59.0
78475;SHT31;67766;51.964;5.660;2024-03-23T06:54:27;11.6;59.2
78475;SHT31;67766;51.964;5.660;2024-03-23T06:56:56;11.7;59.5
78475;SHT31;67766;51.964;5.660;2024-03-23T06:59:26;11.7;57.6
78475;SHT31;67766;51.964;5.660;2024-03-23T07:01:55;11.8;57.2
78475;SHT31;67766;51.964;5.660;2024-03-23T07:04:24;11.8;57.5
78475;SHT31;67766;51.964;5.660;2024-03-23T07:06:54;11.8;57.9
78475;SHT31;67766;51.964;5.660;2024-03-23T07:09:23;11.9;57.9
78475;SHT31;67766;51.964;5.660;2024-03-23T07:11:56;11.9;57.3
78475;SHT31;67766;51.964;5.660;2024-03-23T07:14:26;12.0;57.9
78475;SHT31;67766;51.964;5.660;2024-03-23T07:16:55;12.0;57.8
78475;SHT31;67766;51.964;5.660;2024-03-23T07:19:25;12.0;58.4
78475;SHT31;67766;51.964;5.660;2024-03-23T07:21:55;12.1;58.1
78475;SHT31;67766;51.964;5.660;2024-03-23T07:24:25;12.2;59.9
78475;SHT31;67766;51.964;5.660;2024-03-23T07:26:54;12.2;58.6
78475;SHT31;67766;51.964;5.660;2024-03-23T07:29:25;12.4;57.4
78475;SHT31;67766;51.964;5.660;2024-03-23T07:31:54;12.4;57.1
78475;SHT31;67766;51.964;5.660;2024-03-23T07:34:24;12.5;56.4
78475;SHT31;67766;51.964;5.660;2024-03-23T07:36:53;12.6;56.7
78475;SHT31;67766;51.964;5.660;2024-03-23T07:39:22;12.6;57.5
78475;SHT31;67766;51.964;5.660;2024-03-23T07:41:52;12.8;57.7
78475;SHT31;67766;51.964;5.660;2024-03-23T07:44:21;12.9;57.0
78475;SHT31;67766;51.964;5.660;2024-03-23T07:46:51;13.1;56.5
78475;SHT31;67766;51.964;5.660;2024-03-23T07:49:20;13.3;56.5
78475;SHT31;67766;51.964;5.660;2024-03-23T07:51:50;13.4;54.8
78475;SHT31;67766;51.964;5.660;2024-03-23T07:54:19;13.6;55.0
78475;SHT31;67766;51.964;5.660;2024-03-23T07:56:49;13.8;54.4
78475;SHT31;67766;51.964;5.660;2024-03-23T07:59:18;14.0;54.1
78475;SHT31;67766;51.964;5.660;2024-03-23T08:01:47;14.2;53.5
78475;SHT31;67766;51.964;5.660;2024-03-23T08:04:17;14.4;52.6
78475;SHT31;67766;51.964;5.660;2024-03-23T08:06:46;14.6;51.9
78475;SHT31;67766;51.964;5.660;2024-03-23T08:09:16;14.8;51.2
78475;SHT31;67766;51.964;5.660;2024-03-23T08:11:48;15.0;50.9
78475;SHT31;67766;51.964;5.660;2024-03-23T08:14:17;15.2;50.3
78475;SHT31;67766;51.964;5.660;2024-03-23T08:16:47;15.3;50.4
78475;SHT31;67766;51.964;5.660;2024-03-23T08:19:18;15.5;50.1
78475;SHT31;67766;51.964;5.660;2024-03-23T08:21:47;15.7;49.4
78475;SHT31;67766;51.964;5.660;2024-03-23T08:24:20;15.9;48.5
78475;SHT31;67766;51.964;5.660;2024-03-23T08:26:50;16.2;47.9
78475;SHT31;67766;51.964;5.660;2024-03-23T08:29:20;16.4;47.6
78475;SHT31;67766;51.964;5.660;2024-03-23T08:31:49;16.6;46.5
78475;SHT31;67766;51.964;5.660;2024-03-23T08:34:19;16.9;46.8
78475;SHT31;67766;51.964;5.660;2024-03-23T08:36:49;17.1;44.7
78475;SHT31;67766;51.964;5.660;2024-03-23T08:39:19;17.2;44.2
78475;SHT31;67766;51.964;5.660;2024-03-23T08:41:52;17.3;44.5
78475;SHT31;67766;51.964;5.660;2024-03-23T08:44:21;17.4;42.0
78475;SHT31;67766;51.964;5.660;2024-03-23T08:46:51;17.5;42.1
78475;SHT31;67766;51.964;5.660;2024-03-23T08:49:20;17.6;42.3
78475;SHT31;67766;51.964;5.660;2024-03-23T08:51:50;17.6;41.6
78475;SHT31;67766;51.964;5.660;2024-03-23T08:54:19;17.7;42.5
78475;SHT31;67766;51.964;5.660;2024-03-23T08:56:50;17.8;40.5
78475;SHT31;67766;51.964;5.660;2024-03-23T08:59:19;18.0;40.6
78475;SHT31;67766;51.964;5.660;2024-03-23T09:01:51;18.2;41.7
78475;SHT31;67766;51.964;5.660;2024-03-23T09:04:20;18.3;39.7
78475;SHT31;67766;51.964;5.660;2024-03-23T09:06:50;18.4;39.3
78475;SHT31;67766;51.964;5.660;2024-03-23T09:09:22;18.5;38.5
78475;SHT31;67766;51.964;5.660;2024-03-23T09:11:52;18.5;39.1
78475;SHT31;67766;51.964;5.660;2024-03-23T09:14:22;18.5;39.3
78475;SHT31;67766;51.964;5.660;2024-03-23T09:16:53;18.5;39.8
78475;SHT31;67766;51.964;5.660;2024-03-23T09:19:23;18.6;40.0
78475;SHT31;67766;51.964;5.660;2024-03-23T09:21:52;18.9;39.0
78475;SHT31;67766;51.964;5.660;2024-03-23T09:24:22;19.1;39.0
78475;SHT31;67766;51.964;5.660;2024-03-23T09:26:51;19.3;38.6
78475;SHT31;67766;51.964;5.660;2024-03-23T09:29:22;19.5;38.7
78475;SHT31;67766;51.964;5.660;2024-03-23T09:31:51;19.8;39.1
78475;SHT31;67766;51.964;5.660;2024-03-23T09:34:20;20.1;38.2
78475;SHT31;67766;51.964;5.660;2024-03-23T09:36:52;20.4;37.8
78475;SHT31;67766;51.964;5.660;2024-03-23T09:39:22;20.8;39.1
78475;SHT31;67766;51.964;5.660;2024-03-23T09:41:56;21.1;37.9
78475;SHT31;67766;51.964;5.660;2024-03-23T09:44:26;21.4;34.6
78475;SHT31;67766;51.964;5.660;2024-03-23T09:46:59;21.5;35.0
78475;SHT31;67766;51.964;5.660;2024-03-23T09:49:29;21.5;35.5
78475;SHT31;67766;51.964;5.660;2024-03-23T09:52:01;21.6;34.0
78475;SHT31;67766;51.964;5.660;2024-03-23T09:54:34;21.8;33.8
78475;SHT31;67766;51.964;5.660;2024-03-23T09:57:03;22.0;33.4
78475;SHT31;67766;51.964;5.660;2024-03-23T09:59:34;22.2;32.4
78475;SHT31;67766;51.964;5.660;2024-03-23T10:02:03;22.5;32.6
78475;SHT31;67766;51.964;5.660;2024-03-23T10:04:40;22.8;31.5
78475;SHT31;67766;51.964;5.660;2024-03-23T10:07:15;23.1;30.9
78475;SHT31;67766;51.964;5.660;2024-03-23T10:09:46;23.4;30.3
78475;SHT31;67766;51.964;5.660;2024-03-23T10:12:18;23.6;28.8
78475;SHT31;67766;51.964;5.660;2024-03-23T10:14:47;23.7;29.2
78475;SHT31;67766;51.964;5.660;2024-03-23T10:17:18;23.7;30.3
78475;SHT31;67766;51.964;5.660;2024-03-23T10:19:56;23.5;30.3
78475;SHT31;67766;51.964;5.660;2024-03-23T10:22:27;23.4;30.1
78475;SHT31;67766;51.964;5.660;2024-03-23T10:25:08;23.3;30.2
78475;SHT31;67766;51.964;5.660;2024-03-23T10:27:38;23.2;30.4
78475;SHT31;67766;51.964;5.660;2024-03-23T10:30:12;23.2;30.9
78475;SHT31;67766;51.964;5.660;2024-03-23T10:32:42;23.3;31.0
78475;SHT31;67766;51.964;5.660;2024-03-23T10:35:19;23.5;29.5
78475;SHT31;67766;51.964;5.660;2024-03-23T10:37:51;23.7;30.4
78475;SHT31;67766;51.964;5.660;2024-03-23T10:40:22;23.8;29.8
78475;SHT31;67766;51.964;5.660;2024-03-23T10:42:58;24.0;30.2
78475;SHT31;67766;51.964;5.660;2024-03-23T10:45:28;24.1;30.2
78475;SHT31;67766;51.964;5.660;2024-03-23T10:47:58;24.2;31.0
78475;SHT31;67766;51.964;5.660;2024-03-23T10:50:27;24.4;29.5
78475;SHT31;67766;51.964;5.660;2024-03-23T10:52:58;24.6;28.8
78475;SHT31;67766;51.964;5.660;2024-03-23T10:55:28;24.8;28.7
78475;SHT31;67766;51.964;5.660;2024-03-23T10:58:00;24.9;29.0
78475;SHT31;67766;51.964;5.660;2024-03-23T11:00:31;25.0;28.6
78475;SHT31;67766;51.964;5.660;2024-03-23T11:03:30;25.0;28.5
78475;SHT31;67766;51.964;5.660;2024-03-23T11:06:01;25.1;28.3
78475;SHT31;67766;51.964;5.660;2024-03-23T11:08:31;25.2;28.9
78475;SHT31;67766;51.964;5.660;2024-03-23T11:11:14;25.5;28.0
78475;SHT31;67766;51.964;5.660;2024-03-23T11:13:44;25.7;27.8
78475;SHT31;67766;51.964;5.660;2024-03-23T11:16:22;25.8;27.5
78475;SHT31;67766;51.964;5.660;2024-03-23T11:18:51;25.9;27.7
78475;SHT31;67766;51.964;5.660;2024-03-23T11:21:53;25.9;27.3
78475;SHT31;67766;51.964;5.660;2024-03-23T11:24:23;25.9;28.0
78475;SHT31;67766;51.964;5.660;2024-03-23T11:26:53;25.8;27.4
78475;SHT31;67766;51.964;5.660;2024-03-23T11:29:22;25.7;28.7
78475;SHT31;67766;51.964;5.660;2024-03-23T11:31:53;25.6;29.5
78475;SHT31;67766;51.964;5.660;2024-03-23T11:34:23;25.6;28.8
78475;SHT31;67766;51.964;5.660;2024-03-23T11:37:05;25.6;28.2
78475;SHT31;67766;51.964;5.660;2024-03-23T11:39:35;25.8;28.9
78475;SHT31;67766;51.964;5.660;2024-03-23T11:42:05;25.8;29.3
78475;SHT31;67766;51.964;5.660;2024-03-23T11:44:34;25.8;27.3
78475;SHT31;67766;51.964;5.660;2024-03-23T11:47:09;25.6;25.5
78475;SHT31;67766;51.964;5.660;2024-03-23T11:49:41;25.2;25.6
78475;SHT31;67766;51.964;5.660;2024-03-23T11:52:10;24.6;27.0
78475;SHT31;67766;51.964;5.660;2024-03-23T11:54:42;24.1;28.1
78475;SHT31;67766;51.964;5.660;2024-03-23T11:57:11;23.9;28.0
78475;SHT31;67766;51.964;5.660;2024-03-23T11:59:41;23.7;27.2
78475;SHT31;67766;51.964;5.660;2024-03-23T12:02:12;23.5;27.7
78475;SHT31;67766;51.964;5.660;2024-03-23T12:04:42;23.3;29.5
78475;SHT31;67766;51.964;5.660;2024-03-23T12:07:13;23.1;29.8
78475;SHT31;67766;51.964;5.660;2024-03-23T12:09:43;22.9;30.2
78475;SHT31;67766;51.964;5.660;2024-03-23T12:12:16;22.7;28.8
78475;SHT31;67766;51.964;5.660;2024-03-23T12:15:02;22.5;29.5
78475;SHT31;67766;51.964;5.660;2024-03-23T12:17:36;22.3;29.6
78475;SHT31;67766;51.964;5.660;2024-03-23T12:20:06;22.2;33.5
78475;SHT31;67766;51.964;5.660;2024-03-23T12:22:36;22.0;30.2
78475;SHT31;67766;51.964;5.660;2024-03-23T12:25:06;21.9;30.0
78475;SHT31;67766;51.964;5.660;2024-03-23T12:27:35;21.8;29.3
78475;SHT31;67766;51.964;5.660;2024-03-23T12:30:06;21.7;29.8
78475;SHT31;67766;51.964;5.660;2024-03-23T12:32:38;21.6;29.4
78475;SHT31;67766;51.964;5.660;2024-03-23T12:35:08;21.5;30.5
78475;SHT31;67766;51.964;5.660;2024-03-23T12:37:37;21.4;31.3
78475;SHT31;67766;51.964;5.660;2024-03-23T12:40:10;21.4;31.7
78475;SHT31;67766;51.964;5.660;2024-03-23T12:42:41;21.3;30.5
78475;SHT31;67766;51.964;5.660;2024-03-23T12:45:11;21.3;29.3
78475;SHT31;67766;51.964;5.660;2024-03-23T12:47:40;21.3;29.3
78475;SHT31;67766;51.964;5.660;2024-03-23T12:50:10;21.2;29.8
78475;SHT31;67766;51.964;5.660;2024-03-23T12:52:42;21.1;29.8
78475;SHT31;67766;51.964;5.660;2024-03-23T12:55:12;21.1;32.5
78475;SHT31;67766;51.964;5.660;2024-03-23T12:57:42;21.0;31.2
78475;SHT31;67766;51.964;5.660;2024-03-23T13:00:12;21.0;30.8
78475;SHT31;67766;51.964;5.660;2024-03-23T13:02:43;21.0;31.0
78475;SHT31;67766;51.964;5.660;2024-03-23T13:05:13;20.9;32.3
78475;SHT31;67766;51.964;5.660;2024-03-23T13:07:43;20.9;32.5
78475;SHT31;67766;51.964;5.660;2024-03-23T13:10:12;20.9;34.0
78475;SHT31;67766;51.964;5.660;2024-03-23T13:12:43;20.8;32.3
78475;SHT31;67766;51.964;5.660;2024-03-23T13:15:14;20.8;33.9
78475;SHT31;67766;51.964;5.660;2024-03-23T13:17:46;20.8;33.5
78475;SHT31;67766;51.964;5.660;2024-03-23T13:20:16;20.7;33.0
78475;SHT31;67766;51.964;5.660;2024-03-23T13:22:46;20.7;34.7
78475;SHT31;67766;51.964;5.660;2024-03-23T13:25:19;20.7;34.0
78475;SHT31;67766;51.964;5.660;2024-03-23T13:27:49;20.6;37.2
78475;SHT31;67766;51.964;5.660;2024-03-23T13:30:18;20.6;32.0
78475;SHT31;67766;51.964;5.660;2024-03-23T13:32:48;20.5;32.4
78475;SHT31;67766;51.964;5.660;2024-03-23T13:35:17;20.5;32.2
78475;SHT31;67766;51.964;5.660;2024-03-23T13:37:49;20.4;33.9
78475;SHT31;67766;51.964;5.660;2024-03-23T13:40:20;20.3;34.4
78475;SHT31;67766;51.964;5.660;2024-03-23T13:42:50;20.3;34.4
78475;SHT31;67766;51.964;5.660;2024-03-23T13:45:19;20.2;33.6
78475;SHT31;67766;51.964;5.660;2024-03-23T13:47:49;20.2;33.2
78475;SHT31;67766;51.964;5.660;2024-03-23T13:50:20;20.1;33.7
78475;SHT31;67766;51.964;5.660;2024-03-23T13:52:49;20.0;33.6
78475;SHT31;67766;51.964;5.660;2024-03-23T13:55:19;20.0;34.3
78475;SHT31;67766;51.964;5.660;2024-03-23T13:57:49;19.9;37.3
78475;SHT31;67766;51.964;5.660;2024-03-23T14:00:19;19.8;38.2
78475;SHT31;67766;51.964;5.660;2024-03-23T14:02:48;19.8;38.0
78475;SHT31;67766;51.964;5.660;2024-03-23T14:05:18;19.7;39.3
78475;SHT31;67766;51.964;5.660;2024-03-23T14:07:47;19.6;38.0
78475;SHT31;67766;51.964;5.660;2024-03-23T14:10:17;19.6;37.7
78475;SHT31;67766;51.964;5.660;2024-03-23T14:12:48;19.5;38.3
78475;SHT31;67766;51.964;5.660;2024-03-23T14:15:18;19.5;37.3
78475;SHT31;67766;51.964;5.660;2024-03-23T14:17:47;19.4;37.3
78475;SHT31;67766;51.964;5.660;2024-03-23T14:20:17;19.4;38.2
78475;SHT31;67766;51.964;5.660;2024-03-23T14:22:46;19.3;38.3
78475;SHT31;67766;51.964;5.660;2024-03-23T14:25:16;19.2;39.5
78475;SHT31;67766;51.964;5.660;2024-03-23T14:27:46;19.1;38.7
78475;SHT31;67766;51.964;5.660;2024-03-23T14:30:16;19.0;38.9
78475;SHT31;67766;51.964;5.660;2024-03-23T14:32:46;18.9;38.2
78475;SHT31;67766;51.964;5.660;2024-03-23T14:35:15;18.9;38.6
78475;SHT31;67766;51.964;5.660;2024-03-23T14:37:44;18.8;39.1
78475;SHT31;67766;51.964;5.660;2024-03-23T14:40:14;18.7;39.2
78475;SHT31;67766;51.964;5.660;2024-03-23T14:42:44;18.6;39.6
78475;SHT31;67766;51.964;5.660;2024-03-23T14:45:16;18.6;39.4
78475;SHT31;67766;51.964;5.660;2024-03-23T14:47:45;18.5;39.1
78475;SHT31;67766;51.964;5.660;2024-03-23T14:50:15;18.5;39.3
78475;SHT31;67766;51.964;5.660;2024-03-23T14:52:45;18.4;39.4
78475;SHT31;67766;51.964;5.660;2024-03-23T14:55:15;18.3;39.0
78475;SHT31;67766;51.964;5.660;2024-03-23T14:57:47;18.3;39.3
78475;SHT31;67766;51.964;5.660;2024-03-23T15:00:18;18.2;38.5
78475;SHT31;67766;51.964;5.660;2024-03-23T15:02:48;18.1;38.9
78475;SHT31;67766;51.964;5.660;2024-03-23T15:05:17;18.0;39.5
78475;SHT31;67766;51.964;5.660;2024-03-23T15:07:48;18.0;39.0
78475;SHT31;67766;51.964;5.660;2024-03-23T15:10:19;17.9;39.6
78475;SHT31;67766;51.964;5.660;2024-03-23T15:12:48;17.8;38.9
78475;SHT31;67766;51.964;5.660;2024-03-23T15:15:19;17.8;38.8
78475;SHT31;67766;51.964;5.660;2024-03-23T15:17:48;17.7;38.5
78475;SHT31;67766;51.964;5.660;2024-03-23T15:20:19;17.7;38.9
78475;SHT31;67766;51.964;5.660;2024-03-23T15:22:48;17.6;38.6
78475;SHT31;67766;51.964;5.660;2024-03-23T15:25:18;17.5;39.2
78475;SHT31;67766;51.964;5.660;2024-03-23T15:27:51;17.5;38.2
78475;SHT31;67766;51.964;5.660;2024-03-23T15:30:21;17.4;38.1
78475;SHT31;67766;51.964;5.660;2024-03-23T15:32:50;17.3;37.5
78475;SHT31;67766;51.964;5.660;2024-03-23T15:35:20;17.2;38.4
78475;SHT31;67766;51.964;5.660;2024-03-23T15:37:51;17.2;37.7
78475;SHT31;67766;51.964;5.660;2024-03-23T15:40:22;17.1;38.7
78475;SHT31;67766;51.964;5.660;2024-03-23T15:42:52;17.1;38.2
78475;SHT31;67766;51.964;5.660;2024-03-23T15:45:21;17.0;38.2
78475;SHT31;67766;51.964;5.660;2024-03-23T15:47:51;17.0;38.0
78475;SHT31;67766;51.964;5.660;2024-03-23T15:50:23;16.9;37.3
78475;SHT31;67766;51.964;5.660;2024-03-23T15:52:52;16.8;38.1
78475;SHT31;67766;51.964;5.660;2024-03-23T15:55:23;16.8;37.7
78475;SHT31;67766;51.964;5.660;2024-03-23T15:57:52;16.7;38.5
78475;SHT31;67766;51.964;5.660;2024-03-23T16:00:22;16.5;39.4
78475;SHT31;67766;51.964;5.660;2024-03-23T16:02:53;16.5;40.3
78475;SHT31;67766;51.964;5.660;2024-03-23T16:05:25;16.4;40.9
78475;SHT31;67766;51.964;5.660;2024-03-23T16:07:55;16.3;40.6
78475;SHT31;67766;51.964;5.660;2024-03-23T16:10:24;16.3;40.7
78475;SHT31;67766;51.964;5.660;2024-03-23T16:12:54;16.2;41.1
78475;SHT31;67766;51.964;5.660;2024-03-23T16:15:23;16.1;41.6
78475;SHT31;67766;51.964;5.660;2024-03-23T16:17:53;16.0;40.8
78475;SHT31;67766;51.964;5.660;2024-03-23T16:20:26;15.9;41.5
78475;SHT31;67766;51.964;5.660;2024-03-23T16:22:56;15.8;41.0
78475;SHT31;67766;51.964;5.660;2024-03-23T16:25:30;15.6;41.2
78475;SHT31;67766;51.964;5.660;2024-03-23T16:27:59;15.4;41.8
78475;SHT31;67766;51.964;5.660;2024-03-23T16:30:31;15.3;43.2
78475;SHT31;67766;51.964;5.660;2024-03-23T16:33:00;15.1;43.4
78475;SHT31;67766;51.964;5.660;2024-03-23T16:35:30;15.0;43.2
78475;SHT31;67766;51.964;5.660;2024-03-23T16:37:59;14.9;43.5
78475;SHT31;67766;51.964;5.660;2024-03-23T16:40:29;14.8;43.4
78475;SHT31;67766;51.964;5.660;2024-03-23T16:42:58;14.6;42.8
78475;SHT31;67766;51.964;5.660;2024-03-23T16:45:28;14.5;42.7
78475;SHT31;67766;51.964;5.660;2024-03-23T16:47:58;14.4;42.6
78475;SHT31;67766;51.964;5.660;2024-03-23T16:50:29;14.3;43.5
78475;SHT31;67766;51.964;5.660;2024-03-23T16:52:58;14.2;43.4
78475;SHT31;67766;51.964;5.660;2024-03-23T16:55:28;14.2;43.0
78475;SHT31;67766;51.964;5.660;2024-03-23T16:57:57;14.1;43.1
78475;SHT31;67766;51.964;5.660;2024-03-23T17:00:27;14.0;43.7
78475;SHT31;67766;51.964;5.660;2024-03-23T17:02:56;13.9;43.9
78475;SHT31;67766;51.964;5.660;2024-03-23T17:05:26;13.9;44.0
78475;SHT31;67766;51.964;5.660;2024-03-23T17:07:55;13.8;44.3
78475;SHT31;67766;51.964;5.660;2024-03-23T17:10:27;13.8;45.0
78475;SHT31;67766;51.964;5.660;2024-03-23T17:12:57;13.7;45.4
78475;SHT31;67766;51.964;5.660;2024-03-23T17:15:27;13.7;45.7